createdAt,value
2018-08-07T00:02:12.861Z,17.00
2018-08-07T00:04:44.696Z,13.07
2018-08-07T00:07:18.453Z,11.53
2018-08-07T00:09:51.225Z,10.80
2018-08-07T00:12:22.505Z,11.00
2018-08-07T00:14:53.836Z,10.80
2018-08-07T00:17:26.181Z,12.03
2018-08-07T00:19:57.896Z,12.50
2018-08-07T00:22:29.230Z,10.83
2018-08-07T00:25:00.419Z,13.33
2018-08-07T00:27:33.851Z,11.57
2018-08-07T00:30:05.900Z,11.20
2018-08-07T00:32:37.396Z,10.63
2018-08-07T00:35:13.822Z,10.43
2018-08-07T00:37:45.124Z,11.13
2018-08-07T00:40:19.215Z,10.90
2018-08-07T00:42:50.279Z,10.37
2018-08-07T00:45:26.616Z,10.00
2018-08-07T00:47:57.930Z,12.47
2018-08-07T00:50:29.494Z,11.00
2018-08-07T00:53:00.844Z,9.90
2018-08-07T00:55:39.928Z,9.73
2018-08-07T00:58:11.780Z,9.00
2018-08-07T01:00:42.809Z,16.30
2018-08-07T01:03:14.488Z,10.97
2018-08-07T01:05:45.868Z,10.17
2018-08-07T01:08:18.143Z,9.40
2018-08-07T01:10:49.883Z,10.60
2018-08-07T01:13:22.397Z,9.57
2018-08-07T01:15:53.633Z,8.40
2018-08-07T01:18:25.126Z,10.60
2018-08-07T01:20:56.324Z,14.67
2018-08-07T01:23:29.752Z,9.00
2018-08-07T01:26:02.483Z,9.97
2018-08-07T01:28:33.633Z,8.33
2018-08-07T01:31:08.736Z,8.60
2018-08-07T01:33:39.797Z,11.33
2018-08-07T01:36:10.889Z,10.13
2018-08-07T01:38:43.169Z,16.77
2018-08-07T01:41:14.236Z,8.63
2018-08-07T01:43:45.456Z,7.93
2018-08-07T01:46:27.401Z,7.80
2018-08-07T01:48:58.755Z,9.50
2018-08-07T01:51:30.592Z,8.20
2018-08-07T01:54:02.851Z,8.97
2018-08-07T01:56:34.645Z,9.20
2018-08-07T01:59:06.850Z,11.07
2018-08-07T02:01:38.765Z,9.37
2018-08-07T02:04:09.811Z,9.30
2018-08-07T02:06:41.115Z,9.40
2018-08-07T02:09:12.614Z,13.93
2018-08-07T02:11:44.646Z,9.30
2018-08-07T02:14:17.584Z,8.97
2018-08-07T02:16:50.685Z,9.00
2018-08-07T02:19:21.824Z,9.77
2018-08-07T02:21:53.841Z,8.27
2018-08-07T02:24:30.806Z,13.10
2018-08-07T02:27:01.990Z,9.17
2018-08-07T02:29:33.019Z,14.43
2018-08-07T02:32:04.756Z,9.23
2018-08-07T02:34:39.775Z,12.03
2018-08-07T02:37:11.505Z,14.73
2018-08-07T02:39:42.814Z,12.17
2018-08-07T02:42:13.876Z,9.63
2018-08-07T02:44:46.094Z,10.27
2018-08-07T02:47:17.596Z,10.40
2018-08-07T02:49:48.804Z,13.57
2018-08-07T02:52:26.160Z,8.80
2018-08-07T02:54:57.107Z,8.53
2018-08-07T02:57:28.267Z,11.30
2018-08-07T02:59:59.963Z,16.13
2018-08-07T03:02:32.093Z,14.63
2018-08-07T03:05:03.803Z,9.00
2018-08-07T03:07:36.305Z,15.60
2018-08-07T03:10:08.579Z,17.60
2018-08-07T03:12:41.096Z,8.90
2018-08-07T03:15:15.129Z,19.30
2018-08-07T03:17:48.064Z,8.67
2018-08-07T03:20:19.588Z,7.93
2018-08-07T03:22:51.743Z,8.43
2018-08-07T03:25:23.131Z,12.47
2018-08-07T03:27:55.752Z,7.67
2018-08-07T03:30:26.957Z,11.00
2018-08-07T03:32:58.132Z,7.07
2018-08-07T03:35:29.535Z,7.90
2018-08-07T03:38:00.700Z,7.20
2018-08-07T03:40:31.715Z,7.03
2018-08-07T03:43:03.174Z,7.37
2018-08-07T03:45:34.462Z,8.10
2018-08-07T03:48:11.496Z,8.90
2018-08-07T03:50:43.091Z,13.43
2018-08-07T03:53:14.580Z,9.53
2018-08-07T03:55:45.850Z,12.60
2018-08-07T03:58:19.616Z,8.33
2018-08-07T04:00:51.091Z,10.87
2018-08-07T04:03:22.255Z,8.43
2018-08-07T04:05:53.874Z,10.33
2018-08-07T04:08:25.271Z,10.50
2018-08-07T04:10:57.413Z,28.23
2018-08-07T04:13:28.759Z,26.23
2018-08-07T04:15:59.909Z,38.27
2018-08-07T04:18:31.930Z,85.37
2018-08-07T04:21:03.285Z,80.20
2018-08-07T04:23:35.260Z,35.03
2018-08-07T04:26:08.272Z,8.50
2018-08-07T04:28:43.783Z,6.80
2018-08-07T04:31:15.214Z,7.27
2018-08-07T04:33:47.559Z,11.63
2018-08-07T04:36:18.733Z,12.23
2018-08-07T04:38:51.907Z,10.83
2018-08-07T04:41:23.139Z,7.40
2018-08-07T04:43:55.941Z,6.47
2018-08-07T04:46:27.742Z,10.77
2018-08-07T04:49:02.581Z,9.63
2018-08-07T04:51:33.738Z,7.83
2018-08-07T04:54:06.551Z,10.90
2018-08-07T04:56:38.403Z,15.72
2018-08-07T04:59:13.129Z,10.35
2018-08-07T05:01:44.573Z,12.98
2018-08-07T05:04:16.813Z,9.80
2018-08-07T05:06:48.406Z,14.73
2018-08-07T05:09:21.027Z,18.17
2018-08-07T05:11:52.661Z,20.52
2018-08-07T05:14:23.802Z,39.50
2018-08-07T05:16:55.146Z,9.20
2018-08-07T05:19:26.276Z,8.33
2018-08-07T05:21:58.610Z,9.00
2018-08-07T05:24:30.580Z,10.30
2018-08-07T05:27:02.675Z,13.00
2018-08-07T05:29:34.596Z,12.98
2018-08-07T05:32:05.899Z,8.85
2018-08-07T05:34:36.845Z,9.63
2018-08-07T05:37:09.721Z,10.05
2018-08-07T05:39:43.101Z,9.58
2018-08-07T05:42:16.172Z,8.95
2018-08-07T05:44:47.547Z,15.38
2018-08-07T05:47:18.586Z,7.72
2018-08-07T05:49:50.671Z,15.18
2018-08-07T05:52:22.148Z,8.38
2018-08-07T05:54:53.596Z,10.05
2018-08-07T05:57:25.266Z,24.05
2018-08-07T05:59:57.371Z,11.10
2018-08-07T06:02:28.593Z,12.85
2018-08-07T06:05:04.235Z,14.65
2018-08-07T06:07:37.678Z,8.70
2018-08-07T06:10:10.620Z,9.03
2018-08-07T06:12:41.989Z,11.40
2018-08-07T06:15:15.382Z,9.75
2018-08-07T06:17:47.775Z,9.63
2018-08-07T06:20:20.124Z,11.78
2018-08-07T06:22:51.988Z,8.50
2018-08-07T06:25:25.840Z,8.65
2018-08-07T06:27:57.767Z,10.70
2018-08-07T06:30:29.329Z,15.32
2018-08-07T06:33:00.647Z,10.45
2018-08-07T06:35:36.029Z,18.92
2018-08-07T06:38:09.909Z,13.22
2018-08-07T06:40:41.965Z,12.33
2018-08-07T06:43:13.963Z,11.25
2018-08-07T06:45:49.148Z,11.50
2018-08-07T06:48:20.378Z,9.48
2018-08-07T06:50:52.664Z,8.68
2018-08-07T06:53:24.364Z,8.80
2018-08-07T06:55:56.637Z,9.08
2018-08-07T06:58:28.011Z,7.42
2018-08-07T07:01:02.002Z,10.15
2018-08-07T07:03:35.232Z,12.53
2018-08-07T07:06:07.495Z,7.92
2018-08-07T07:08:38.775Z,8.05
2018-08-07T07:11:10.328Z,7.75
2018-08-07T07:13:41.640Z,8.83
2018-08-07T07:16:13.022Z,9.28
2018-08-07T07:18:44.354Z,8.48
2018-08-07T07:21:15.565Z,12.37
2018-08-07T07:23:46.715Z,8.13
2018-08-07T07:26:19.529Z,9.48
2018-08-07T07:28:52.021Z,10.30
2018-08-07T07:31:23.214Z,12.23
2018-08-07T07:34:00.768Z,16.42
2018-08-07T07:36:32.370Z,10.55
2018-08-07T07:39:04.706Z,10.10
2018-08-07T07:41:44.265Z,10.25
2018-08-07T07:44:15.518Z,9.58
2018-08-07T07:46:46.932Z,11.33
2018-08-07T07:49:19.549Z,12.28
2018-08-07T07:51:52.680Z,9.93
2018-08-07T07:54:23.909Z,11.40
2018-08-07T07:56:57.208Z,11.77
2018-08-07T07:59:28.448Z,16.30
2018-08-07T08:02:00.125Z,9.53
2018-08-07T08:04:31.358Z,9.50
2018-08-07T08:07:03.029Z,10.80
2018-08-07T08:09:34.184Z,10.63
2018-08-07T08:12:06.173Z,12.20
2018-08-07T08:14:37.311Z,19.23
2018-08-07T08:17:08.582Z,12.07
2018-08-07T08:19:40.070Z,20.97
2018-08-07T08:22:13.122Z,12.30
2018-08-07T08:24:44.251Z,10.93
2018-08-07T08:27:15.724Z,10.57
2018-08-07T08:29:48.290Z,17.20
2018-08-07T08:32:20.733Z,10.97
2018-08-07T08:34:52.202Z,13.20
2018-08-07T08:37:23.937Z,11.27
2018-08-07T08:40:01.066Z,11.90
2018-08-07T08:42:33.662Z,13.63
2018-08-07T08:45:05.125Z,12.30
2018-08-07T08:47:37.185Z,12.07
2018-08-07T08:50:15.833Z,10.77
2018-08-07T08:52:49.255Z,11.43
2018-08-07T08:55:21.118Z,11.20
2018-08-07T08:57:53.076Z,9.57
2018-08-07T09:00:26.628Z,11.37
2018-08-07T09:02:59.254Z,11.10
2018-08-07T09:05:31.467Z,10.20
2018-08-07T09:08:03.182Z,11.87
2018-08-07T09:10:34.683Z,10.63
2018-08-07T09:13:05.654Z,11.53
2018-08-07T09:15:41.485Z,10.83
2018-08-07T09:18:16.986Z,11.13
2018-08-07T09:20:48.177Z,11.37
2018-08-07T09:23:21.276Z,10.67
2018-08-07T09:25:52.763Z,11.10
2018-08-07T09:28:24.789Z,11.57
2018-08-07T09:30:56.300Z,11.00
2018-08-07T09:33:28.058Z,11.37
2018-08-07T09:35:59.589Z,10.77
2018-08-07T09:38:32.505Z,11.20
2018-08-07T09:41:04.877Z,10.27
2018-08-07T09:43:36.288Z,15.50
2018-08-07T09:46:11.622Z,11.57
2018-08-07T09:48:43.495Z,10.17
2018-08-07T09:51:14.936Z,18.70
2018-08-07T09:53:46.122Z,10.13
2018-08-07T09:56:17.537Z,14.40
2018-08-07T09:58:48.817Z,10.90
2018-08-07T10:01:25.459Z,10.60
2018-08-07T10:03:58.166Z,10.53
2018-08-07T10:06:30.743Z,10.70
2018-08-07T10:09:02.510Z,11.80
2018-08-07T10:11:33.662Z,11.03
2018-08-07T10:14:06.894Z,9.80
2018-08-07T10:16:38.463Z,10.57
2018-08-07T10:19:10.047Z,22.53
2018-08-07T10:21:41.520Z,10.53
2018-08-07T10:24:12.893Z,9.90
2018-08-07T10:26:44.112Z,9.37
2018-08-07T10:29:15.815Z,10.70
2018-08-07T10:31:47.942Z,9.80
2018-08-07T10:34:19.133Z,10.37
2018-08-07T10:36:50.735Z,10.07
2018-08-07T10:39:23.045Z,10.40
2018-08-07T10:41:54.775Z,9.20
2018-08-07T10:44:26.731Z,11.83
2018-08-07T10:46:58.271Z,10.17
2018-08-07T10:49:29.534Z,9.77
2018-08-07T10:52:01.095Z,10.50
2018-08-07T10:54:32.662Z,10.07
2018-08-07T10:57:04.716Z,9.13
2018-08-07T10:59:36.960Z,10.60
2018-08-07T11:02:09.465Z,9.90
2018-08-07T11:04:40.861Z,9.90
2018-08-07T11:07:12.850Z,11.60
2018-08-07T11:09:44.777Z,9.37
2018-08-07T11:12:16.200Z,9.60
2018-08-07T11:14:48.777Z,9.67
2018-08-07T11:17:20.809Z,9.93
2018-08-07T11:19:52.395Z,10.87
2018-08-07T11:22:23.803Z,10.60
2018-08-07T11:24:57.047Z,10.23
2018-08-07T11:27:29.908Z,9.97
2018-08-07T11:30:03.409Z,10.10
2018-08-07T11:32:37.161Z,9.10
2018-08-07T11:35:11.583Z,10.33
2018-08-07T11:37:44.106Z,10.83
2018-08-07T11:40:18.014Z,9.20
2018-08-07T11:42:52.882Z,9.27
2018-08-07T11:45:26.990Z,9.13
2018-08-07T11:47:59.128Z,8.57
2018-08-07T11:50:32.343Z,9.43
2018-08-07T11:53:03.921Z,9.73
2018-08-07T11:55:35.094Z,16.37
2018-08-07T11:58:07.127Z,14.10
2018-08-07T12:00:39.322Z,8.30
2018-08-07T12:03:11.720Z,8.50
2018-08-07T12:05:43.571Z,8.63
2018-08-07T12:08:15.523Z,8.93
2018-08-07T12:10:46.945Z,9.17
2018-08-07T12:13:18.317Z,8.93
2018-08-07T12:15:49.422Z,8.00
2018-08-07T12:18:20.581Z,7.83
2018-08-07T12:20:54.108Z,9.03
2018-08-07T12:23:28.930Z,8.83
2018-08-07T12:26:00.226Z,9.77
2018-08-07T12:28:32.009Z,7.83
2018-08-07T12:31:03.817Z,8.47
2018-08-07T12:33:35.247Z,10.30
2018-08-07T12:36:07.023Z,15.70
2018-08-07T12:38:39.818Z,10.20
2018-08-07T12:41:13.702Z,9.90
2018-08-07T12:43:45.047Z,9.63
2018-08-07T12:46:17.051Z,13.30
2018-08-07T12:48:48.156Z,9.17
2018-08-07T12:51:20.214Z,10.07
2018-08-07T12:53:52.504Z,11.17
2018-08-07T12:56:23.799Z,9.97
2018-08-07T12:58:55.004Z,10.23
2018-08-07T13:01:26.478Z,10.63
2018-08-07T13:03:58.285Z,10.63
2018-08-07T13:06:29.611Z,10.53
2018-08-07T13:09:01.037Z,10.13
2018-08-07T13:11:32.565Z,12.50
2018-08-07T13:14:03.703Z,12.57
2018-08-07T13:16:36.828Z,10.47
2018-08-07T13:19:08.045Z,13.07
2018-08-07T13:21:39.476Z,12.67
2018-08-07T13:24:11.042Z,12.60
2018-08-07T13:26:42.508Z,15.40
2018-08-07T13:29:14.339Z,11.63
2018-08-07T13:31:45.512Z,13.23
2018-08-07T13:34:16.639Z,11.77
2018-08-07T13:36:47.979Z,12.23
2018-08-07T13:39:19.900Z,11.50
2018-08-07T13:41:51.607Z,10.67
2018-08-07T13:44:22.751Z,11.97
2018-08-07T13:46:55.056Z,11.90
2018-08-07T13:49:27.032Z,10.50
2018-08-07T13:51:59.515Z,10.53
2018-08-07T13:54:30.926Z,10.53
2018-08-07T13:57:02.293Z,11.60
2018-08-07T13:59:34.154Z,18.53
2018-08-07T14:02:06.616Z,10.93
2018-08-07T14:04:38.055Z,12.40
2018-08-07T14:07:09.636Z,13.87
2018-08-07T14:09:41.490Z,10.10
2018-08-07T14:12:12.881Z,10.53
2018-08-07T14:14:44.400Z,10.27
2018-08-07T14:17:15.700Z,10.37
2018-08-07T14:19:46.992Z,10.10
2018-08-07T14:22:18.352Z,13.83
2018-08-07T14:24:49.665Z,10.73
2018-08-07T14:27:23.422Z,10.17
2018-08-07T14:29:54.497Z,10.23
2018-08-07T14:32:26.366Z,11.83
2018-08-07T14:34:58.125Z,18.33
2018-08-07T14:37:30.244Z,13.30
2018-08-07T14:40:01.405Z,15.17
2018-08-07T14:42:32.491Z,13.70
2018-08-07T14:45:03.826Z,17.20
2018-08-07T14:47:35.455Z,13.00
2018-08-07T14:50:08.943Z,12.60
2018-08-07T14:52:41.721Z,13.60
2018-08-07T14:55:13.359Z,12.63
2018-08-07T14:57:44.764Z,13.57
2018-08-07T15:00:18.441Z,14.20
2018-08-07T15:02:49.998Z,14.87
2018-08-07T15:05:21.650Z,12.73
2018-08-07T15:07:54.023Z,13.53
2018-08-07T15:10:26.848Z,16.60
2018-08-07T15:13:00.302Z,15.47
2018-08-07T15:15:33.641Z,14.23
2018-08-07T15:18:05.669Z,15.23
2018-08-07T15:20:38.416Z,17.97
2018-08-07T15:23:10.758Z,15.17
2018-08-07T15:25:42.696Z,13.83
2018-08-07T15:28:14.009Z,14.70
2018-08-07T15:30:45.415Z,14.13
2018-08-07T15:33:16.796Z,15.30
2018-08-07T15:35:48.026Z,15.43
2018-08-07T15:38:20.081Z,15.50
2018-08-07T15:40:52.187Z,15.33
2018-08-07T15:43:24.062Z,24.53
2018-08-07T15:45:55.372Z,14.70
2018-08-07T15:48:28.171Z,13.93
2018-08-07T15:50:59.883Z,22.47
2018-08-07T15:53:32.076Z,14.50
2018-08-07T15:56:05.130Z,16.73
2018-08-07T15:58:36.498Z,15.37
2018-08-07T16:01:09.478Z,16.30
2018-08-07T16:03:44.453Z,15.50
2018-08-07T16:06:15.932Z,17.43
2018-08-07T16:08:47.047Z,16.03
2018-08-07T16:11:18.565Z,16.40
2018-08-07T16:13:50.605Z,15.73
2018-08-07T16:16:22.162Z,19.93
2018-08-07T16:18:56.089Z,17.37
2018-08-07T16:21:27.735Z,15.40
2018-08-07T16:23:59.773Z,16.80
2018-08-07T16:26:32.034Z,15.97
2018-08-07T16:29:03.646Z,17.00
2018-08-07T16:31:36.850Z,20.80
2018-08-07T16:34:08.733Z,17.10
2018-08-07T16:36:40.461Z,16.50
2018-08-07T16:39:13.989Z,14.20
2018-08-07T16:41:45.659Z,16.47
2018-08-07T16:44:16.941Z,15.37
2018-08-07T16:46:50.518Z,19.67
2018-08-07T16:49:22.110Z,16.90
2018-08-07T16:51:53.340Z,15.73
2018-08-07T16:54:25.795Z,16.53
2018-08-07T16:56:57.370Z,17.33
2018-08-07T16:59:29.062Z,19.03
2018-08-07T17:02:01.032Z,16.17
2018-08-07T17:04:35.410Z,15.00
2018-08-07T17:07:06.474Z,21.13
2018-08-07T17:09:37.844Z,16.33
2018-08-07T17:12:09.328Z,17.77
2018-08-07T17:14:42.313Z,19.10
2018-08-07T17:17:13.778Z,19.70
2018-08-07T17:19:45.152Z,16.40
2018-08-07T17:22:17.689Z,16.77
2018-08-07T17:24:49.050Z,19.80
2018-08-07T17:27:20.362Z,24.27
2018-08-07T17:29:52.963Z,18.40
2018-08-07T17:32:26.381Z,18.23
2018-08-07T17:34:58.242Z,17.27
2018-08-07T17:37:29.682Z,16.87
2018-08-07T17:40:01.297Z,16.03
2018-08-07T17:42:32.727Z,16.70
2018-08-07T17:45:04.460Z,17.90
2018-08-07T17:47:36.407Z,20.87
2018-08-07T17:50:11.483Z,20.53
2018-08-07T17:52:43.077Z,19.67
2018-08-07T17:55:15.440Z,18.90
2018-08-07T17:57:47.049Z,19.13
2018-08-07T18:00:20.022Z,15.57
2018-08-07T18:02:51.556Z,18.20
2018-08-07T18:05:24.428Z,16.93
2018-08-07T18:07:58.250Z,16.23
2018-08-07T18:10:33.780Z,15.50
2018-08-07T18:13:05.190Z,18.40
2018-08-07T18:15:36.905Z,15.63
2018-08-07T18:18:08.757Z,14.40
2018-08-07T18:20:40.525Z,16.20
2018-08-07T18:23:12.979Z,15.53
2018-08-07T18:25:44.179Z,15.30
2018-08-07T18:28:15.609Z,14.43
2018-08-07T18:30:47.435Z,14.40
2018-08-07T18:33:20.245Z,15.63
2018-08-07T18:35:51.853Z,12.80
2018-08-07T18:38:23.490Z,16.53
2018-08-07T18:40:55.242Z,16.53
2018-08-07T18:43:26.693Z,16.17
2018-08-07T18:45:58.407Z,16.70
2018-08-07T18:48:30.118Z,15.07
2018-08-07T18:51:02.770Z,18.37
2018-08-07T18:53:34.247Z,14.20
2018-08-07T18:56:08.529Z,14.33
2018-08-07T18:58:40.234Z,15.03
2018-08-07T19:01:11.640Z,17.40
2018-08-07T19:03:44.410Z,14.70
2018-08-07T19:06:19.240Z,14.77
2018-08-07T19:08:52.483Z,15.20
2018-08-07T19:11:24.281Z,13.93
2018-08-07T19:13:58.651Z,15.03
2018-08-07T19:16:32.507Z,17.70
2018-08-07T19:19:14.283Z,15.83
2018-08-07T19:21:50.351Z,14.87
2018-08-07T19:24:23.289Z,18.17
2018-08-07T19:26:56.020Z,15.43
2018-08-07T19:29:28.720Z,15.20
2018-08-07T19:32:00.616Z,15.53
2018-08-07T19:34:32.416Z,15.57
2018-08-07T19:37:04.179Z,13.57
2018-08-07T19:39:35.845Z,13.40
2018-08-07T19:42:07.617Z,16.63
2018-08-07T19:44:38.849Z,14.03
2018-08-07T19:47:12.950Z,14.67
2018-08-07T19:49:45.626Z,17.17
2018-08-07T19:52:18.090Z,14.07
2018-08-07T19:54:49.653Z,13.13
2018-08-07T19:57:23.390Z,12.77
2018-08-07T19:59:55.646Z,13.00
2018-08-07T20:02:30.167Z,13.67
2018-08-07T20:05:02.175Z,15.17
2018-08-07T20:07:37.066Z,15.97
2018-08-07T20:10:11.112Z,15.03
2018-08-07T20:12:43.644Z,15.23
2018-08-07T20:15:19.776Z,13.30
2018-08-07T20:17:51.523Z,14.70
2018-08-07T20:20:23.541Z,15.47
2018-08-07T20:22:56.655Z,13.87
2018-08-07T20:25:28.446Z,15.23
2018-08-07T20:28:00.831Z,16.27
2018-08-07T20:30:33.406Z,13.73
2018-08-07T20:33:04.876Z,13.53
2018-08-07T20:35:37.034Z,13.77
2018-08-07T20:38:08.960Z,14.50
2018-08-07T20:40:41.911Z,16.47
2018-08-07T20:43:14.105Z,13.43
2018-08-07T20:45:48.361Z,13.80
2018-08-07T20:48:20.497Z,15.47
2018-08-07T20:50:52.282Z,14.63
2018-08-07T20:53:23.692Z,15.87
2018-08-07T20:55:55.369Z,14.73
2018-08-07T20:58:26.691Z,14.63
2018-08-07T21:00:59.224Z,13.23
2018-08-07T21:03:30.633Z,14.80
2018-08-07T21:06:02.218Z,18.00
2018-08-07T21:08:33.598Z,15.00
2018-08-07T21:11:04.919Z,13.70
2018-08-07T21:13:37.005Z,16.27
2018-08-07T21:16:08.485Z,12.60
2018-08-07T21:18:40.759Z,12.50
2018-08-07T21:21:11.851Z,15.67
2018-08-07T21:23:44.682Z,14.23
2018-08-07T21:26:16.776Z,15.57
2018-08-07T21:28:48.481Z,13.57
2018-08-07T21:31:19.688Z,12.40
2018-08-07T21:33:50.974Z,13.03
2018-08-07T21:36:22.673Z,13.07
2018-08-07T21:38:54.178Z,13.53
2018-08-07T21:41:26.345Z,13.57
2018-08-07T21:43:57.797Z,11.80
2018-08-07T21:46:29.183Z,12.87
2018-08-07T21:49:00.337Z,13.70
2018-08-07T21:51:31.650Z,13.13
2018-08-07T21:54:04.676Z,12.90
2018-08-07T21:56:36.109Z,11.97
2018-08-07T21:59:08.545Z,12.60
2018-08-07T22:01:40.109Z,12.67
2018-08-07T22:04:11.475Z,11.97
2018-08-07T22:06:43.763Z,11.47
2018-08-07T22:09:16.233Z,12.33
2018-08-07T22:11:47.419Z,11.20
2018-08-07T22:14:20.085Z,11.53
2018-08-07T22:16:56.534Z,11.60
2018-08-07T22:19:27.880Z,11.63
2018-08-07T22:21:59.228Z,12.03
2018-08-07T22:24:31.100Z,12.03
2018-08-07T22:27:03.177Z,11.70
2018-08-07T22:29:35.435Z,11.20
2018-08-07T22:32:06.784Z,11.07
2018-08-07T22:34:38.086Z,13.00
2018-08-07T22:37:09.157Z,11.33
2018-08-07T22:39:40.336Z,10.70
2018-08-07T22:42:12.959Z,12.37
2018-08-07T22:44:44.181Z,15.30
2018-08-07T22:47:16.804Z,11.40
2018-08-07T22:49:48.963Z,12.43
2018-08-07T22:52:20.331Z,11.57
2018-08-07T22:54:52.918Z,10.83
2018-08-07T22:57:24.127Z,11.37
2018-08-07T22:59:56.490Z,12.00
2018-08-07T23:02:28.531Z,11.13
2018-08-07T23:04:59.880Z,10.77
2018-08-07T23:07:31.148Z,11.40
2018-08-07T23:10:02.958Z,12.93
2018-08-07T23:12:34.090Z,11.23
2018-08-07T23:15:06.759Z,15.00
2018-08-07T23:17:38.347Z,14.13
2018-08-07T23:20:10.436Z,12.47
2018-08-07T23:22:41.659Z,14.57
2018-08-07T23:25:14.540Z,11.10
2018-08-07T23:27:45.816Z,11.40
2018-08-07T23:30:19.059Z,10.60
2018-08-07T23:32:50.505Z,12.60
2018-08-07T23:35:24.548Z,10.90
2018-08-07T23:37:55.920Z,10.87
2018-08-07T23:40:27.491Z,15.40
2018-08-07T23:42:59.586Z,13.17
2018-08-07T23:45:31.069Z,12.20
2018-08-07T23:48:02.155Z,13.73
2018-08-07T23:50:33.343Z,16.23
2018-08-07T23:53:04.478Z,12.20
2018-08-07T23:55:36.480Z,11.67
2018-08-07T23:58:07.664Z,13.37
